Time;durP1;ratioP1;P1;durP2;ratioP2;P2;SDS_P1;SDS_P2;PMS_P1;PMS_P2;Temp;Humidity;BMP_temperature;BMP_pressure;BME280_temperature;BME280_humidity;BME280_pressure;Samples;Min_cycle;Max_cycle;Signal;HPM_P1;HPM_P2
2022/07/21 00:00:58;;;;;;;38.80;28.10;;;21.90;99.90;;;;;;5092445;28;20609;-87
2022/07/21 00:03:26;;;;;;;39.90;28.48;;;21.80;99.90;;;;;;5080897;28;20655;-86
2022/07/21 00:05:53;;;;;;;35.45;26.88;;;21.70;99.90;;;;;;5084023;28;20203;-85
2022/07/21 00:08:21;;;;;;;32.45;25.05;;;21.70;99.90;;;;;;5079090;28;20208;-86
2022/07/21 00:10:49;;;;;;;34.80;26.08;;;21.80;99.90;;;;;;5087484;28;20207;-86
2022/07/21 00:13:16;;;;;;;33.67;27.30;;;21.60;99.90;;;;;;5079447;28;20204;-87
2022/07/21 00:15:43;;;;;;;35.00;26.40;;;21.40;99.90;;;;;;5085187;28;20231;-87
2022/07/21 00:18:13;;;;;;;35.63;27.90;;;21.40;99.90;;;;;;5077783;28;20200;-85
2022/07/21 00:20:41;;;;;;;34.95;29.00;;;21.40;99.90;;;;;;5082211;28;20199;-86
2022/07/21 00:23:11;;;;;;;38.42;29.10;;;21.30;99.90;;;;;;5080997;28;20249;-85
2022/07/21 00:25:39;;;;;;;34.83;25.88;;;21.20;99.90;;;;;;5084735;28;20215;-87
2022/07/21 00:28:06;;;;;;;31.17;23.45;;;21.20;99.90;;;;;;5088803;28;20221;-86
2022/07/21 00:30:35;;;;;;;32.35;24.30;;;21.20;99.90;;;;;;5086626;28;20747;-85
2022/07/21 00:33:02;;;;;;;25.80;20.60;;;21.20;99.90;;;;;;5093260;28;20524;-87
2022/07/21 00:35:55;;;;;;;25.05;18.63;;;21.20;99.90;;;;;;5084529;28;20706;-87
2022/07/21 00:38:22;;;;;;;22.52;16.10;;;21.10;99.90;;;;;;5117573;27;20946;-86
2022/07/21 00:40:49;;;;;;;19.02;15.30;;;21.00;99.90;;;;;;5097756;28;20208;-86
2022/07/21 00:43:17;;;;;;;18.73;15.35;;;20.90;99.90;;;;;;5094843;28;20210;-86
2022/07/21 00:45:44;;;;;;;19.48;14.82;;;20.90;99.90;;;;;;5100693;28;20688;-87
2022/07/21 00:48:15;;;;;;;20.98;16.58;;;20.80;99.90;;;;;;5079858;28;20211;-87
2022/07/21 00:51:01;;;;;;;18.45;14.68;;;20.80;99.90;;;;;;5081236;28;20254;-88
2022/07/21 00:53:35;;;;;;;18.45;14.65;;;20.70;99.90;;;;;;5088154;28;20211;-87
2022/07/21 00:56:03;;;;;;;17.48;15.23;;;20.70;99.90;;;;;;5084331;28;20235;-86
2022/07/21 00:58:32;;;;;;;20.80;16.35;;;20.60;99.90;;;;;;5087165;28;20204;-86
2022/07/21 01:00:59;;;;;;;21.83;17.25;;;20.60;99.90;;;;;;5090025;28;20565;-84
2022/07/21 01:03:30;;;;;;;21.13;17.42;;;20.50;99.90;;;;;;5093267;28;20599;-85
2022/07/21 01:05:59;;;;;;;19.48;16.52;;;20.50;99.90;;;;;;5088711;28;20204;-87
2022/07/21 01:08:27;;;;;;;20.20;17.17;;;20.50;99.90;;;;;;5090650;28;20204;-85
2022/07/21 01:10:55;;;;;;;23.13;18.30;;;20.50;99.90;;;;;;5084085;28;20206;-85
2022/07/21 01:13:22;;;;;;;24.10;19.25;;;20.50;99.90;;;;;;5089175;28;20714;-86
2022/07/21 01:15:52;;;;;;;26.38;19.73;;;20.60;99.90;;;;;;5085344;28;20315;-87
2022/07/21 01:18:22;;;;;;;29.27;21.25;;;20.50;99.90;;;;;;5073877;28;20216;-87
2022/07/21 01:20:54;;;;;;;28.30;20.80;;;20.60;99.90;;;;;;5075962;28;20205;-87
2022/07/21 01:23:22;;;;;;;27.92;21.20;;;20.60;99.90;;;;;;5089226;28;20204;-84
2022/07/21 01:25:52;;;;;;;22.58;18.48;;;20.60;99.90;;;;;;5076716;28;20590;-86
2022/07/21 01:28:19;;;;;;;24.38;18.70;;;20.60;99.90;;;;;;5082749;28;20207;-85
2022/07/21 01:30:46;;;;;;;25.58;20.33;;;20.60;99.90;;;;;;5086977;28;20219;-86
2022/07/21 01:33:13;;;;;;;26.20;20.50;;;20.60;99.90;;;;;;5089832;28;20547;-86
2022/07/21 01:35:41;;;;;;;24.55;19.48;;;20.60;99.90;;;;;;5080884;28;20700;-85
2022/07/21 01:41:28;;;;;;;24.85;18.83;;;20.50;99.90;;;;;;5086310;28;20273;-86
2022/07/21 01:43:46;;;;;;;25.25;19.52;;;20.60;99.90;;;;;;5087506;28;20210;-86
2022/07/21 01:46:13;;;;;;;22.27;17.50;;;20.60;99.90;;;;;;5087136;28;20700;-85
2022/07/21 01:48:44;;;;;;;22.55;17.98;;;20.60;99.90;;;;;;5088341;28;20209;-86
2022/07/21 01:51:13;;;;;;;19.40;14.82;;;20.60;99.90;;;;;;5085427;28;20867;-86
2022/07/21 01:53:40;;;;;;;19.50;16.38;;;20.50;99.90;;;;;;5087914;28;20633;-87
2022/07/21 01:56:07;;;;;;;22.38;16.58;;;20.50;99.90;;;;;;5087754;28;20227;-85
2022/07/21 01:58:35;;;;;;;20.30;15.18;;;20.50;99.90;;;;;;5077157;28;20212;-86
2022/07/21 02:01:02;;;;;;;18.50;14.85;;;20.50;99.90;;;;;;5080833;28;20225;-87
2022/07/21 02:03:32;;;;;;;20.02;16.42;;;20.50;99.90;;;;;;5084692;28;20227;-87
2022/07/21 02:06:07;;;;;;;15.20;13.32;;;20.50;99.90;;;;;;5080860;28;20211;-87
2022/07/21 02:08:34;;;;;;;18.58;15.73;;;20.50;99.90;;;;;;5085689;28;20212;-87
2022/07/21 02:11:02;;;;;;;15.38;12.90;;;20.50;99.90;;;;;;5086166;28;20196;-89
2022/07/21 02:13:35;;;;;;;18.45;15.40;;;20.50;99.90;;;;;;5087255;28;20203;-86
2022/07/21 02:16:06;;;;;;;20.33;14.50;;;20.40;99.90;;;;;;5079186;28;20241;-87
2022/07/21 02:18:33;;;;;;;20.23;16.15;;;20.40;99.90;;;;;;5079593;28;20290;-86
2022/07/21 02:21:01;;;;;;;17.27;13.90;;;20.40;99.90;;;;;;5079848;28;20206;-86
2022/07/21 02:23:28;;;;;;;22.38;17.50;;;20.40;99.90;;;;;;5090749;28;20209;-85
2022/07/21 02:25:56;;;;;;;22.95;17.17;;;20.40;99.90;;;;;;5087197;28;20199;-85
2022/07/21 02:28:24;;;;;;;22.90;17.58;;;20.40;99.90;;;;;;5086744;28;20558;-84
2022/07/21 02:30:53;;;;;;;20.23;16.38;;;20.50;99.90;;;;;;5076941;28;20227;-87
2022/07/21 02:33:20;;;;;;;17.88;15.07;;;20.50;99.90;;;;;;5087894;28;20200;-86
2022/07/21 02:35:47;;;;;;;20.88;15.85;;;20.50;99.90;;;;;;5078343;28;20237;-84
2022/07/21 02:38:15;;;;;;;22.38;16.45;;;20.50;99.90;;;;;;5087794;28;20272;-84
2022/07/21 02:40:48;;;;;;;17.92;15.15;;;20.50;99.90;;;;;;5083468;28;20204;-84
2022/07/21 02:43:23;;;;;;;19.40;15.55;;;20.50;99.90;;;;;;5106005;28;20188;-85
2022/07/21 02:45:49;;;;;;;18.38;15.20;;;20.50;99.90;;;;;;5104029;28;20205;-85
2022/07/21 02:48:17;;;;;;;22.83;18.00;;;20.50;99.90;;;;;;5102236;28;20553;-84
2022/07/21 02:50:47;;;;;;;21.17;16.23;;;20.40;99.90;;;;;;5104996;28;20196;-86
2022/07/21 02:53:23;;;;;;;22.27;18.48;;;20.40;99.90;;;;;;5103436;28;20250;-84
2022/07/21 02:55:52;;;;;;;22.63;17.10;;;20.40;99.90;;;;;;5098320;28;20224;-88
2022/07/21 02:58:24;;;;;;;24.98;17.98;;;20.40;99.90;;;;;;5111677;28;20230;-85
2022/07/21 03:00:54;;;;;;;24.20;19.08;;;20.40;99.90;;;;;;5097401;28;20208;-85
2022/07/21 03:03:24;;;;;;;22.33;18.10;;;20.40;99.90;;;;;;5091071;28;20637;-84
2022/07/21 03:05:51;;;;;;;23.98;18.90;;;20.30;99.90;;;;;;5089880;28;20191;-85
2022/07/21 03:08:19;;;;;;;23.08;18.60;;;20.30;99.90;;;;;;5083388;28;20672;-85
2022/07/21 03:10:46;;;;;;;21.15;16.40;;;20.30;99.90;;;;;;5088854;28;20281;-85
2022/07/21 03:13:16;;;;;;;22.48;18.80;;;20.30;99.90;;;;;;5090068;28;20615;-84
2022/07/21 03:15:46;;;;;;;26.00;20.02;;;20.20;99.90;;;;;;5083310;28;20223;-85
2022/07/21 03:18:15;;;;;;;23.75;18.10;;;20.20;99.90;;;;;;5086589;28;20224;-83
2022/07/21 03:20:43;;;;;;;27.35;20.02;;;20.20;99.90;;;;;;5082596;28;20200;-84
2022/07/21 03:23:10;;;;;;;23.73;19.40;;;20.10;99.90;;;;;;5087126;28;20207;-84
2022/07/21 03:25:37;;;;;;;23.98;18.40;;;20.20;99.90;;;;;;5087574;28;20203;-84
2022/07/21 03:28:06;;;;;;;25.33;19.38;;;20.10;99.90;;;;;;5083361;28;20207;-85
2022/07/21 03:30:34;;;;;;;25.83;18.67;;;20.20;99.90;;;;;;5084965;28;20211;-84
2022/07/21 03:33:04;;;;;;;23.40;19.30;;;20.20;99.90;;;;;;5079404;28;20243;-87
2022/07/21 03:35:31;;;;;;;25.58;19.48;;;20.20;99.90;;;;;;5073387;28;20244;-84
2022/07/21 03:38:02;;;;;;;24.48;19.42;;;20.20;99.90;;;;;;5077445;28;20218;-85
2022/07/21 03:40:32;;;;;;;27.40;20.08;;;20.20;99.90;;;;;;5077415;28;20870;-84
2022/07/21 03:43:04;;;;;;;25.80;19.55;;;20.10;99.90;;;;;;5082092;28;20207;-84
2022/07/21 03:45:32;;;;;;;28.52;20.23;;;20.10;99.90;;;;;;5081318;28;20215;-83
2022/07/21 03:48:00;;;;;;;29.42;21.30;;;20.10;99.90;;;;;;5074734;28;20271;-86
2022/07/21 03:50:32;;;;;;;26.17;20.05;;;20.10;99.90;;;;;;5081091;28;20276;-84
2022/07/21 03:52:59;;;;;;;28.00;21.63;;;20.00;99.90;;;;;;5079900;28;20211;-86
2022/07/21 03:55:27;;;;;;;28.38;21.40;;;19.90;99.90;;;;;;5079364;28;20227;-86
2022/07/21 03:57:56;;;;;;;29.30;22.13;;;20.00;99.90;;;;;;5082281;28;20227;-84
2022/07/21 04:00:31;;;;;;;31.17;23.27;;;20.00;99.90;;;;;;5081040;28;20220;-83
2022/07/21 04:02:59;;;;;;;29.90;21.33;;;20.00;99.90;;;;;;5083891;28;20292;-85
2022/07/21 04:05:28;;;;;;;33.58;24.17;;;20.00;99.90;;;;;;5080059;28;20239;-85
2022/07/21 04:08:04;;;;;;;31.58;23.23;;;20.00;99.90;;;;;;5085189;28;20702;-84
2022/07/21 04:10:33;;;;;;;34.00;22.42;;;19.90;99.90;;;;;;5076377;28;20203;-85
2022/07/21 04:13:04;;;;;;;30.55;23.73;;;19.90;99.90;;;;;;5079728;28;20253;-86
2022/07/21 04:15:32;;;;;;;32.88;24.40;;;19.90;99.90;;;;;;5091005;28;20583;-84
2022/07/21 04:17:59;;;;;;;31.98;24.50;;;19.90;99.90;;;;;;5090223;28;20223;-87
2022/07/21 04:20:27;;;;;;;34.60;25.33;;;20.00;99.90;;;;;;5083591;28;20218;-85
2022/07/21 04:22:54;;;;;;;34.80;26.08;;;20.00;99.90;;;;;;5080079;28;20200;-85
2022/07/21 04:25:22;;;;;;;34.58;25.45;;;19.80;99.90;;;;;;5085223;28;20234;-84
2022/07/21 04:27:50;;;;;;;37.15;26.55;;;20.00;99.90;;;;;;5083457;28;20240;-85
2022/07/21 04:30:19;;;;;;;38.83;27.35;;;20.00;99.90;;;;;;5083575;28;20862;-84
2022/07/21 04:32:47;;;;;;;37.10;26.83;;;20.00;99.90;;;;;;5083837;28;20651;-85
2022/07/21 04:35:14;;;;;;;36.50;26.38;;;20.00;99.90;;;;;;5081674;28;20676;-85
2022/07/21 04:37:44;;;;;;;39.25;27.73;;;20.00;99.90;;;;;;5075265;28;20228;-87
2022/07/21 04:40:13;;;;;;;38.17;27.13;;;20.00;99.90;;;;;;5083782;28;20236;-86
2022/07/21 04:42:41;;;;;;;40.60;29.42;;;19.90;99.90;;;;;;5087742;28;20199;-92
2022/07/21 04:45:14;;;;;;;40.78;29.05;;;19.90;99.90;;;;;;5094295;28;20206;-90
2022/07/21 04:48:02;;;;;;;42.42;29.15;;;19.90;99.90;;;;;;5096669;28;20207;-91
2022/07/21 04:50:33;;;;;;;41.45;30.23;;;19.90;99.90;;;;;;5096946;28;20212;-87
2022/07/21 04:53:09;;;;;;;43.65;30.15;;;19.90;99.90;;;;;;5096955;28;20214;-92
2022/07/21 04:55:40;;;;;;;42.70;29.75;;;19.90;99.90;;;;;;5083087;28;20269;-87
2022/07/21 04:58:11;;;;;;;44.33;30.42;;;20.00;99.90;;;;;;5091030;28;20200;-90
2022/07/21 05:00:41;;;;;;;47.17;30.33;;;20.00;99.90;;;;;;5087114;28;20706;-87
2022/07/21 05:03:08;;;;;;;44.42;30.45;;;20.00;99.90;;;;;;5091165;28;20228;-89
2022/07/21 05:05:36;;;;;;;42.25;29.70;;;20.10;99.90;;;;;;5089575;28;20253;-89
2022/07/21 05:08:11;;;;;;;41.17;29.92;;;20.10;99.90;;;;;;5085173;28;20688;-89
2022/07/21 05:10:38;;;;;;;46.65;31.33;;;20.30;99.90;;;;;;5090645;28;20245;-88
2022/07/21 05:13:18;;;;;;;45.15;31.85;;;20.20;99.90;;;;;;5094831;28;20196;-92
2022/07/21 05:15:49;;;;;;;48.38;32.95;;;20.20;99.90;;;;;;5092307;28;20236;-90
2022/07/21 05:18:17;;;;;;;45.55;32.10;;;20.30;99.90;;;;;;5099708;28;20215;-87
2022/07/21 05:20:46;;;;;;;52.33;33.75;;;20.20;99.90;;;;;;5080605;28;20205;-89
2022/07/21 05:23:16;;;;;;;47.28;31.75;;;20.20;99.90;;;;;;5094194;28;20204;-88
2022/07/21 05:25:46;;;;;;;49.03;33.20;;;20.30;99.90;;;;;;5084105;28;20200;-87
2022/07/21 05:28:13;;;;;;;49.75;33.25;;;20.30;99.90;;;;;;5087224;28;20721;-87
2022/07/21 05:30:42;;;;;;;56.30;34.15;;;20.30;99.90;;;;;;5092468;28;20203;-87
2022/07/21 05:33:09;;;;;;;51.50;33.22;;;20.30;99.90;;;;;;5092167;28;20216;-87
2022/07/21 05:35:36;;;;;;;51.60;33.55;;;20.30;99.90;;;;;;5091131;28;20262;-86
2022/07/21 05:38:10;;;;;;;49.75;31.98;;;20.40;99.90;;;;;;5092503;28;20203;-91
2022/07/21 05:40:41;;;;;;;57.45;36.85;;;20.30;99.90;;;;;;5113491;28;20247;-89
2022/07/21 05:43:13;;;;;;;53.95;35.72;;;20.40;99.90;;;;;;5107072;28;20192;-90
2022/07/21 05:45:41;;;;;;;51.15;34.65;;;20.20;99.90;;;;;;5093600;28;20255;-87
2022/07/21 05:48:08;;;;;;;56.78;37.05;;;20.30;99.90;;;;;;5091301;28;20219;-84
2022/07/21 05:50:35;;;;;;;51.25;33.85;;;20.20;99.90;;;;;;5090559;28;20222;-87
2022/07/21 05:53:02;;;;;;;56.75;36.88;;;20.20;99.90;;;;;;5088268;28;20200;-87
2022/07/21 05:55:39;;;;;;;58.00;36.63;;;20.30;99.90;;;;;;5090737;28;20204;-88
2022/07/21 05:58:06;;;;;;;58.53;36.35;;;20.40;99.90;;;;;;5094872;28;20217;-88
2022/07/21 06:00:37;;;;;;;52.45;36.10;;;20.50;99.90;;;;;;5086413;28;20595;-87
2022/07/21 06:03:07;;;;;;;55.80;36.05;;;20.60;99.90;;;;;;5087631;28;20235;-92
2022/07/21 06:05:38;;;;;;;48.85;33.20;;;20.80;99.90;;;;;;5089979;28;20608;-85
2022/07/21 06:08:07;;;;;;;55.65;36.95;;;21.00;99.90;;;;;;5090310;28;20283;-86
2022/07/21 06:10:41;;;;;;;58.30;37.47;;;21.10;99.90;;;;;;5092228;28;20203;-87
2022/07/21 06:13:09;;;;;;;54.17;35.63;;;21.20;99.90;;;;;;5089898;28;20250;-86
2022/07/21 06:15:39;;;;;;;53.88;34.97;;;21.30;99.90;;;;;;5094206;28;20256;-86
2022/07/21 06:18:15;;;;;;;50.20;33.63;;;21.40;99.90;;;;;;5091947;28;20218;-86
2022/07/21 06:20:44;;;;;;;55.88;36.15;;;21.50;99.90;;;;;;5089823;28;20290;-89
2022/07/21 06:23:15;;;;;;;53.40;35.58;;;21.50;99.90;;;;;;5093569;28;20196;-85
2022/07/21 06:25:45;;;;;;;54.15;34.45;;;21.60;99.90;;;;;;5083381;28;20207;-83
2022/07/21 06:28:12;;;;;;;51.92;34.13;;;21.70;99.90;;;;;;5088431;28;20227;-85
2022/07/21 06:30:42;;;;;;;52.42;33.45;;;21.70;99.90;;;;;;5082586;28;20278;-83
2022/07/21 06:33:10;;;;;;;55.30;35.13;;;21.80;99.90;;;;;;5078641;28;20243;-84
2022/07/21 06:35:37;;;;;;;57.35;36.17;;;21.70;99.90;;;;;;5083936;28;20201;-86
2022/07/21 06:38:04;;;;;;;56.22;34.22;;;21.80;99.90;;;;;;5085176;28;20207;-83
2022/07/21 06:40:41;;;;;;;62.38;37.42;;;21.80;99.90;;;;;;5079454;28;20218;-87
2022/07/21 06:43:14;;;;;;;56.38;35.10;;;21.80;99.90;;;;;;5092213;28;20241;-88
2022/07/21 06:46:00;;;;;;;57.50;36.97;;;21.80;99.90;;;;;;5089655;28;20257;-88
2022/07/21 06:48:28;;;;;;;52.60;35.55;;;21.80;99.90;;;;;;5089851;28;20300;-89
2022/07/21 06:50:56;;;;;;;54.47;36.20;;;21.80;99.90;;;;;;5078335;28;20266;-88
2022/07/21 06:53:27;;;;;;;54.60;37.15;;;21.80;99.90;;;;;;5076268;28;20553;-87
2022/07/21 06:55:55;;;;;;;53.97;36.15;;;22.00;99.90;;;;;;5083922;28;20696;-86
2022/07/21 06:58:32;;;;;;;56.47;37.55;;;22.00;99.90;;;;;;5082886;28;20208;-88
2022/07/21 07:01:06;;;;;;;58.50;38.20;;;22.00;99.90;;;;;;5086331;28;20314;-79
2022/07/21 07:03:34;;;;;;;59.42;38.22;;;21.90;99.90;;;;;;5076513;28;20232;-87
2022/07/21 07:06:04;;;;;;;53.08;37.10;;;21.80;99.90;;;;;;5082449;28;20698;-86
2022/07/21 07:08:32;;;;;;;55.58;36.45;;;21.80;99.90;;;;;;5082012;28;20283;-85
2022/07/21 07:10:59;;;;;;;54.72;38.22;;;21.70;99.90;;;;;;5081605;28;20192;-87
2022/07/21 07:13:30;;;;;;;54.90;37.40;;;21.80;99.90;;;;;;5080769;28;20199;-84
2022/07/21 07:16:17;;;;;;;55.58;37.28;;;21.70;99.90;;;;;;5077424;28;20220;-83
2022/07/21 07:18:44;;;;;;;60.50;39.22;;;21.60;99.90;;;;;;5083969;28;20220;-84
2022/07/21 07:21:11;;;;;;;53.63;38.03;;;21.70;99.90;;;;;;5079918;28;20211;-84
2022/07/21 07:23:39;;;;;;;54.95;36.50;;;21.70;99.90;;;;;;5081193;28;20193;-85
2022/07/21 07:26:07;;;;;;;55.38;37.42;;;21.80;99.90;;;;;;5083691;28;20204;-86
2022/07/21 07:28:35;;;;;;;54.83;38.13;;;21.90;99.90;;;;;;5079193;28;20264;-85
2022/07/21 07:31:02;;;;;;;54.28;36.83;;;22.00;99.90;;;;;;5083743;28;20207;-85
2022/07/21 07:33:29;;;;;;;48.08;36.20;;;22.10;99.90;;;;;;5078150;28;20676;-86
2022/07/21 07:35:57;;;;;;;52.70;36.78;;;22.30;99.90;;;;;;5080428;28;20211;-86
2022/07/21 07:38:24;;;;;;;52.15;36.53;;;22.40;99.90;;;;;;5083605;28;20257;-85
2022/07/21 07:40:51;;;;;;;54.03;35.88;;;22.50;99.90;;;;;;5081740;28;20212;-86
2022/07/21 07:43:18;;;;;;;52.08;35.65;;;22.60;99.90;;;;;;5080972;28;20204;-86
2022/07/21 07:45:48;;;;;;;47.13;33.72;;;22.70;99.90;;;;;;5080360;28;20290;-85
2022/07/21 07:48:15;;;;;;;46.20;34.10;;;23.00;99.90;;;;;;5076910;28;20212;-85
2022/07/21 07:50:46;;;;;;;42.65;32.00;;;23.50;99.90;;;;;;5084625;28;20215;-89
2022/07/21 07:53:14;;;;;;;43.97;31.65;;;23.80;99.90;;;;;;5079427;28;20207;-86
2022/07/21 07:55:44;;;;;;;37.67;29.80;;;24.20;99.90;;;;;;5087922;28;20227;-86
2022/07/21 07:58:10;;;;;;;40.53;30.52;;;24.40;99.90;;;;;;5084890;28;20594;-86
2022/07/21 08:00:39;;;;;;;42.20;31.92;;;24.40;99.90;;;;;;5083320;28;20197;-87
2022/07/21 08:03:26;;;;;;;41.72;30.88;;;24.50;99.90;;;;;;5080392;28;20231;-87
2022/07/21 08:06:02;;;;;;;41.35;30.40;;;24.50;99.90;;;;;;5082648;28;20207;-86
2022/07/21 08:08:33;;;;;;;42.78;30.73;;;24.50;99.90;;;;;;5084873;28;20296;-86
2022/07/21 08:11:01;;;;;;;43.30;30.52;;;24.70;99.90;;;;;;5084563;28;20204;-86
2022/07/21 08:13:28;;;;;;;37.38;28.70;;;25.00;99.90;;;;;;5077809;28;20625;-86
2022/07/21 08:15:58;;;;;;;36.20;28.42;;;25.40;99.90;;;;;;5088100;28;20235;-85
2022/07/21 08:18:26;;;;;;;35.03;27.30;;;25.80;99.90;;;;;;5082359;28;20273;-88
2022/07/21 08:20:56;;;;;;;41.80;30.58;;;25.80;99.90;;;;;;5084228;28;20307;-86
2022/07/21 08:23:25;;;;;;;33.08;26.63;;;25.90;99.90;;;;;;5085533;28;20264;-86
2022/07/21 08:25:53;;;;;;;35.03;27.85;;;25.80;99.90;;;;;;5088933;28;20303;-87
2022/07/21 08:28:22;;;;;;;39.38;28.77;;;25.60;99.90;;;;;;5087618;28;20204;-87
2022/07/21 08:30:49;;;;;;;36.67;27.42;;;25.60;99.90;;;;;;5081495;28;20680;-88
2022/07/21 08:33:17;;;;;;;35.92;27.38;;;25.40;99.90;;;;;;5085282;28;20326;-87
2022/07/21 08:35:44;;;;;;;37.67;28.30;;;25.30;99.90;;;;;;5087546;28;20571;-87
2022/07/21 08:38:13;;;;;;;40.95;29.10;;;25.20;99.90;;;;;;5082512;28;20227;-87
2022/07/21 08:40:46;;;;;;;36.97;27.20;;;25.00;99.90;;;;;;5085905;28;20203;-86
2022/07/21 08:43:14;;;;;;;40.00;30.48;;;24.90;99.90;;;;;;5085893;28;20207;-86
2022/07/21 08:45:45;;;;;;;43.78;29.77;;;24.60;99.90;;;;;;5087408;28;20204;-86
2022/07/21 08:48:14;;;;;;;40.78;29.30;;;24.40;99.90;;;;;;5079276;28;20291;-85
2022/07/21 08:50:48;;;;;;;40.00;28.23;;;24.10;99.90;;;;;;5081438;28;20802;-86
2022/07/21 08:53:21;;;;;;;37.55;28.77;;;24.00;99.90;;;;;;5091138;28;20589;-85
2022/07/21 08:55:49;;;;;;;38.83;28.23;;;23.90;99.90;;;;;;5089066;28;20588;-87
2022/07/21 08:58:18;;;;;;;40.42;29.50;;;23.80;99.90;;;;;;5092541;28;20782;-86
2022/07/21 09:00:48;;;;;;;37.15;27.92;;;23.90;99.90;;;;;;5088577;28;20203;-87
2022/07/21 09:03:21;;;;;;;33.67;25.88;;;24.00;99.90;;;;;;5084194;28;20231;-86
2022/07/21 09:06:12;;;;;;;37.15;25.48;;;24.30;99.90;;;;;;5084354;28;20275;-86
2022/07/21 09:08:44;;;;;;;36.40;25.23;;;24.60;99.90;;;;;;5092374;28;20688;-85
2022/07/21 09:11:24;;;;;;;40.53;27.13;;;24.70;99.90;;;;;;5091213;28;20204;-86
2022/07/21 09:14:08;;;;;;;35.28;25.30;;;24.70;99.90;;;;;;5086147;28;20207;-87
2022/07/21 09:16:43;;;;;;;35.30;24.13;;;24.70;99.90;;;;;;5088184;28;20261;-87
2022/07/21 09:19:24;;;;;;;30.88;25.05;;;24.50;99.90;;;;;;5081078;28;20277;-85
2022/07/21 09:21:55;;;;;;;37.30;24.88;;;24.30;99.90;;;;;;5083537;28;20203;-87
2022/07/21 09:24:29;;;;;;;35.97;25.77;;;24.10;99.90;;;;;;5092520;28;20210;-87
2022/07/21 09:27:13;;;;;;;31.27;23.55;;;24.00;99.90;;;;;;5090210;28;20203;-85
2022/07/21 09:29:47;;;;;;;32.72;24.17;;;23.80;99.90;;;;;;5093642;28;20203;-87
2022/07/21 09:32:29;;;;;;;34.08;24.40;;;23.60;99.90;;;;;;5092522;28;20219;-86
2022/07/21 09:35:14;;;;;;;37.25;25.75;;;23.40;99.90;;;;;;5088378;28;20203;-86
2022/07/21 09:37:42;;;;;;;37.40;25.38;;;23.20;99.90;;;;;;5092266;28;20227;-89
2022/07/21 09:40:16;;;;;;;38.90;25.65;;;23.00;99.90;;;;;;5094395;28;20200;-90
2022/07/21 09:42:53;;;;;;;39.42;26.30;;;22.80;99.90;;;;;;5091852;28;20203;-88
2022/07/21 09:45:25;;;;;;;40.40;25.10;;;22.80;99.90;;;;;;5107455;28;20627;-90
2022/07/21 09:47:52;;;;;;;33.20;24.15;;;22.60;99.90;;;;;;5109457;28;20216;-89
2022/07/21 09:50:20;;;;;;;40.13;25.27;;;22.40;99.90;;;;;;5091638;28;20272;-89
2022/07/21 09:52:57;;;;;;;34.35;23.48;;;22.40;99.90;;;;;;5112148;28;20264;-89
2022/07/21 09:55:25;;;;;;;32.95;21.98;;;22.30;99.90;;;;;;5105272;28;20211;-89
2022/07/21 09:57:58;;;;;;;29.17;21.05;;;22.20;99.90;;;;;;5104696;28;20317;-90
2022/07/21 10:00:31;;;;;;;28.13;18.85;;;22.10;99.90;;;;;;5102914;28;20271;-88
2022/07/21 10:02:58;;;;;;;26.60;19.00;;;22.20;99.90;;;;;;5108050;28;20235;-90
2022/07/21 10:05:28;;;;;;;23.83;17.40;;;22.30;99.90;;;;;;5094953;28;20202;-88
2022/07/21 10:08:16;;;;;;;22.63;17.00;;;22.40;99.90;;;;;;5092014;28;20234;-89
2022/07/21 10:10:54;;;;;;;20.20;13.23;;;22.60;99.90;;;;;;5103025;28;20231;-90
2022/07/21 10:13:45;;;;;;;18.48;11.27;;;22.70;99.90;;;;;;5084994;28;20193;-93
2022/07/21 10:16:16;;;;;;;12.18;10.20;;;22.90;99.90;;;;;;5083785;28;20922;-90
2022/07/21 10:19:12;;;;;;;14.10;9.82;;;22.90;99.90;;;;;;5083619;28;20224;-90
2022/07/21 10:21:40;;;;;;;11.60;8.65;;;22.90;99.90;;;;;;5095136;28;20196;-91
2022/07/21 10:24:18;;;;;;;8.30;6.75;;;22.80;99.90;;;;;;5105266;28;20229;-92
2022/07/21 10:27:05;;;;;;;8.73;6.78;;;22.60;99.90;;;;;;5103914;28;20206;-91
2022/07/21 10:30:04;;;;;;;7.97;5.80;;;22.60;99.90;;;;;;5091142;28;20214;-92
2022/07/21 10:32:35;;;;;;;8.07;6.28;;;22.60;99.90;;;;;;5102665;28;20219;-90
2022/07/21 10:35:25;;;;;;;7.40;5.22;;;22.50;99.90;;;;;;5105353;28;20203;-89
2022/07/21 10:37:52;;;;;;;11.48;5.57;;;22.50;99.90;;;;;;5106205;28;20226;-85
2022/07/21 10:40:19;;;;;;;9.50;6.07;;;22.50;99.90;;;;;;5087830;28;20989;-86
2022/07/21 10:42:59;;;;;;;7.82;5.30;;;22.10;99.90;;;;;;5097711;28;20196;-87
2022/07/21 10:45:44;;;;;;;7.13;5.28;;;22.00;99.90;;;;;;5090839;28;20239;-85
2022/07/21 10:48:37;;;;;;;8.55;5.30;;;21.90;99.90;;;;;;5092031;28;20224;-85
2022/07/21 10:51:08;;;;;;;6.50;4.82;;;21.70;99.90;;;;;;5085736;28;20195;-87
2022/07/21 10:53:35;;;;;;;5.88;5.13;;;21.60;99.90;;;;;;5081099;28;20216;-87
2022/07/21 10:56:03;;;;;;;6.63;5.70;;;21.50;99.90;;;;;;5079252;28;21001;-86
2022/07/21 10:58:31;;;;;;;9.07;6.07;;;21.30;99.90;;;;;;5085745;28;20642;-86
2022/07/21 11:01:24;;;;;;;7.60;5.40;;;21.20;99.90;;;;;;5087996;28;20203;-86
2022/07/21 11:04:16;;;;;;;8.23;5.63;;;21.10;99.90;;;;;;5082671;28;20227;-85
2022/07/21 11:06:46;;;;;;;7.70;6.35;;;21.10;99.90;;;;;;5074622;28;20735;-85
2022/07/21 11:09:19;;;;;;;7.88;6.57;;;21.10;99.90;;;;;;5077741;28;20691;-85
2022/07/21 11:11:46;;;;;;;8.50;7.07;;;21.10;99.90;;;;;;5084651;28;20356;-86
2022/07/21 11:14:18;;;;;;;9.65;7.18;;;21.20;99.90;;;;;;5086363;28;20259;-87
2022/07/21 11:19:39;;;;;;;8.38;6.45;;;21.30;99.90;;;;;;5079419;28;20684;-86
2022/07/21 11:22:19;;;;;;;9.15;6.80;;;21.20;99.90;;;;;;5081290;28;20235;-87
2022/07/21 11:24:59;;;;;;;11.38;7.75;;;21.30;99.90;;;;;;5081985;28;20304;-86
2022/07/21 11:27:36;;;;;;;8.02;6.60;;;21.60;99.90;;;;;;5078947;28;20267;-88
2022/07/21 11:30:07;;;;;;;7.28;5.95;;;21.80;99.90;;;;;;5078879;28;20212;-87
2022/07/21 11:32:34;;;;;;;6.63;5.95;;;22.00;99.90;;;;;;5076848;28;21260;-86
2022/07/21 11:35:04;;;;;;;7.32;6.22;;;22.20;99.90;;;;;;5091489;28;20272;-87
2022/07/21 11:37:36;;;;;;;7.05;5.90;;;22.30;99.90;;;;;;5086895;28;20265;-88
2022/07/21 11:40:08;;;;;;;6.72;5.28;;;22.40;99.90;;;;;;5086963;28;20206;-88
2022/07/21 11:42:36;;;;;;;6.15;5.53;;;22.50;99.90;;;;;;5084092;28;20200;-86
2022/07/21 11:45:05;;;;;;;5.97;5.40;;;22.50;99.90;;;;;;5090686;28;20233;-87
2022/07/21 11:47:32;;;;;;;6.22;4.60;;;22.60;99.90;;;;;;5088366;28;20228;-86
2022/07/21 11:50:10;;;;;;;4.63;4.15;;;22.70;99.90;;;;;;5090444;28;20701;-87
2022/07/21 11:52:39;;;;;;;3.53;3.22;;;22.70;99.90;;;;;;5082723;28;20222;-86
2022/07/21 11:55:12;;;;;;;3.33;2.47;;;22.70;99.90;;;;;;5082151;28;20306;-87
2022/07/21 11:57:49;;;;;;;3.38;3.05;;;22.90;99.90;;;;;;5084224;28;20775;-86
2022/07/21 12:00:16;;;;;;;3.20;2.60;;;23.00;99.90;;;;;;5080166;28;20204;-86
2022/07/21 12:02:48;;;;;;;3.88;3.05;;;22.90;99.90;;;;;;5079153;28;20345;-88
2022/07/21 12:05:17;;;;;;;3.70;3.20;;;22.80;99.90;;;;;;5079434;28;20234;-91
2022/07/21 12:07:51;;;;;;;3.40;3.10;;;22.70;99.90;;;;;;5081799;28;20238;-87
2022/07/21 12:10:27;;;;;;;3.40;3.10;;;22.60;99.90;;;;;;5077863;28;20213;-89
2022/07/21 12:13:05;;;;;;;4.20;3.15;;;22.40;99.90;;;;;;5078354;28;20602;-90
2022/07/21 12:15:39;;;;;;;3.30;2.97;;;22.40;99.90;;;;;;5081143;28;20743;-91
2022/07/21 12:18:18;;;;;;;4.03;3.63;;;22.30;99.90;;;;;;5082427;28;20227;-87
2022/07/21 12:20:46;;;;;;;3.75;3.13;;;22.30;99.90;;;;;;5079118;28;20222;-87
2022/07/21 12:23:24;;;;;;;4.32;3.13;;;22.30;99.90;;;;;;5085696;28;20203;-84
2022/07/21 12:25:54;;;;;;;3.75;3.15;;;22.70;99.90;;;;;;5085135;28;20302;-84
2022/07/21 12:28:43;;;;;;;3.63;3.20;;;22.90;99.90;;;;;;5081249;28;20199;-83
2022/07/21 12:31:14;;;;;;;3.95;2.83;;;23.30;99.90;;;;;;5080869;28;20200;-84
2022/07/21 12:33:41;;;;;;;3.28;2.97;;;23.80;99.90;;;;;;5086912;28;20212;-86
2022/07/21 12:36:28;;;;;;;3.80;3.05;;;24.10;99.90;;;;;;5083254;28;20203;-84
2022/07/21 12:38:55;;;;;;;3.35;3.00;;;24.40;99.90;;;;;;5073786;28;20274;-85
2022/07/21 12:41:23;;;;;;;3.97;3.55;;;24.70;99.90;;;;;;5076087;28;20210;-83
2022/07/21 12:43:57;;;;;;;3.75;3.45;;;24.60;99.90;;;;;;5082992;28;20203;-86
2022/07/21 12:46:39;;;;;;;4.28;3.40;;;24.50;99.90;;;;;;5081659;28;20258;-84
2022/07/21 12:49:09;;;;;;;4.05;3.53;;;24.30;99.90;;;;;;5083581;28;20215;-86
2022/07/21 12:51:41;;;;;;;3.35;3.03;;;24.00;99.90;;;;;;5084681;28;20225;-86
2022/07/21 12:54:09;;;;;;;4.47;3.80;;;23.80;99.90;;;;;;5085221;28;20295;-86
2022/07/21 12:56:37;;;;;;;4.15;3.75;;;23.60;99.90;;;;;;5082662;28;20227;-85